Avenal, California
Current Conditions -  °F | °C
As of 8:56 AM on Friday 19 Dec 2014 (Local Time) from KNLC Reporting Station
Broken Clouds Broken Clouds  
Wind Chill:   Ceiling: 15000
Heat Index:   Visibility: 7mi
Dew Point:   Wind: 8mph
Humidity: 90%   Direction: 150°SSE
Pressure: 30.22"   Gusts: NA
Location:  36°N, 120.13°W
Report Text: KNLC 191656Z 15007KT 7SM SCT085 BKN150 08/07 A3022 RMK AO2 SLP233 T00830067 $
Loading
Personal Weather Stations






























Interactive Weather Map New forecast layout! Learn more

10-Day Weather Forecast

Advertisements
Track Severe Weather on mobile